Fairchild Air Force Base
KSKA : rendu visible

Aérodrome :











RETROUVEZ-NOUS SUR...

 
LOGIN :

S'inscrire | Disclaimer

   EN    FR    IT 

 









Légende :    VFR   VFR Marginal   IFR   IFR Intensif   IFR Très Intensif
Visi : 
Plafond : 
>= 8 km
>= 3000ft
5 à 8 km
1000 à 3000 ft
1500m à 5 km
500 à 1000 ft
800 à 1500m
200 à 500 ft
< 800m
< 200 ft
Symboles :   Orages  Brouillard  Fortes neiges  Fortes précipitations  Vent > 20 kt






- Altitude de l'aérodrome : 2461 ft


KSKA - Fairchild Air Force Base

DERNIER METAR :
  • 081158Z AUTO 02005KT 10SM CLR 03/M07 A3019 RMK AO2 SLP232 T00341066 10065 20016 52017 $

METARs EXPIRÉS :
  • 081058Z AUTO 06004KT 10SM CLR 05/M07 A3017 RMK AO2 SLP223 T00471068 $
  • 080958Z AUTO 34007KT 10SM CLR 05/M07 A3014 RMK AO2 SLP213 T00531066 $

TAF TAF KSKA
Valide du 08 à 11h jusqu'au 09 à 17h UTC


081100Z 0811/0917 06006KT 9999 SKC QNH3012INS TX14/0823Z TN04/0812Z



MET'MAP, la Météo Aéronautique d'un coup d'oeil ! - Copyright ORBIFLY Décembre 2007 - Disclaimer

ORBIFLY MET'MAP TEAM :

Programmation & Développement : Alexandra Zaïnal
Sur une idée originale de : Baudouin d'Aumeries
Assistance à la programmation : Marc-Olivier Méhu
Soutien technique & logistique : Manuel Goepfert

Contact : metmap@orbifly.com




SOURCES & CREDITS :

   NOAA       Earth
Advisory